Aviation Digital Data Service (ADDS)

Output produced by METARs form (1230 UTC 25 June 2019)
found at http://www.aviationweather.gov/metar/data/
 
Forecast for: LFPB (PARIS/LE BOURGET, FR)
Text: TAF LFPB 251100Z 2512/2612 22010KT CAVOK
Forecast period: 1200 to 2100 UTC 25 June 2019
Forecast type: FROM: standard forecast or significant change
Winds: from the SW (220 degrees) at 12 MPH (10 knots; 5.1 m/s)
Visibility: 6 or more miles 10+ km)
Ceiling: unknown
Clouds: missing
Weather: NSW  (no significant weather)
Text: BECMG 2521/2523 02010KT
Forecast period: 2100 UTC 25 June 2019 to 1200 UTC 26 June 2019
Forecast type: BECOMING: Conditions expected to become as follows by 2300 UTC 25 June 2019
Winds: from the NNE (20 degrees) at 12 MPH (10 knots; 5.1 m/s)
Visibility: 6 or more miles 10+ km)
Ceiling: unknown
Clouds: missing
Weather: NSW  (no significant weather)